Time;durP1;ratioP1;P1;durP2;ratioP2;P2;SDS_P1;SDS_P2;PMS_P1;PMS_P2;Temp;Humidity;BMP_temperature;BMP_pressure;BME280_temperature;BME280_humidity;BME280_pressure;Samples;Min_cycle;Max_cycle;Signal;HPM_P1;HPM_P2
2020/12/01 00:01:20;;;;;;;3.80;3.10;;;5.40;99.90;;;;;;5034819;28;20183;-78
2020/12/01 00:03:46;;;;;;;3.73;3.33;;;5.40;99.90;;;;;;5046828;28;20208;-78
2020/12/01 00:06:11;;;;;;;3.40;2.60;;;5.50;99.90;;;;;;5027447;28;20431;-78
2020/12/01 00:08:38;;;;;;;3.90;3.40;;;5.50;99.90;;;;;;5033642;28;20173;-77
2020/12/01 00:11:07;;;;;;;4.00;3.40;;;5.50;99.90;;;;;;5037723;28;20303;-78
2020/12/01 00:13:34;;;;;;;4.10;3.70;;;5.50;99.90;;;;;;5049234;28;20185;-78
2020/12/01 00:15:59;;;;;;;4.45;3.45;;;5.50;99.90;;;;;;5036600;28;20212;-78
2020/12/01 00:18:25;;;;;;;4.10;3.70;;;5.50;99.90;;;;;;5047583;28;20247;-78
2020/12/01 00:20:51;;;;;;;6.13;4.90;;;5.50;99.90;;;;;;5050057;28;20291;-78
2020/12/01 00:23:17;;;;;;;5.97;4.97;;;5.50;99.90;;;;;;5042791;28;20420;-78
2020/12/01 00:25:45;;;;;;;4.63;3.70;;;5.50;99.90;;;;;;5034881;28;20461;-78
2020/12/01 00:28:10;;;;;;;6.28;4.53;;;5.40;99.90;;;;;;5033425;28;20622;-78
2020/12/01 00:30:36;;;;;;;5.97;4.70;;;5.30;99.90;;;;;;5031350;28;20213;-80
2020/12/01 00:33:02;;;;;;;7.27;5.40;;;5.40;99.90;;;;;;5050032;28;20188;-80
2020/12/01 00:35:29;;;;;;;7.00;5.73;;;5.40;99.90;;;;;;5038281;28;20436;-81
2020/12/01 00:37:56;;;;;;;6.28;5.30;;;5.40;99.90;;;;;;5037070;28;20523;-81
2020/12/01 00:40:22;;;;;;;5.47;4.85;;;5.30;99.90;;;;;;5036260;28;20209;-80
2020/12/01 00:42:48;;;;;;;5.30;4.80;;;5.30;99.90;;;;;;5041014;28;20186;-79
2020/12/01 00:45:15;;;;;;;5.37;4.33;;;5.30;99.90;;;;;;5039864;28;20210;-80
2020/12/01 00:47:41;;;;;;;5.22;4.55;;;5.30;99.90;;;;;;5031190;28;20217;-78
2020/12/01 00:50:09;;;;;;;5.90;4.90;;;5.30;99.90;;;;;;5050127;28;20208;-79
2020/12/01 00:52:35;;;;;;;5.22;4.60;;;5.30;99.90;;;;;;5052968;28;20203;-79
2020/12/01 00:55:00;;;;;;;8.03;5.43;;;5.30;99.90;;;;;;5040334;28;20200;-79
2020/12/01 00:57:26;;;;;;;6.30;5.07;;;5.30;99.90;;;;;;5035559;28;20663;-78
2020/12/01 00:59:52;;;;;;;5.30;4.80;;;5.40;99.90;;;;;;5039009;28;20558;-78
2020/12/01 01:02:17;;;;;;;5.67;4.70;;;5.30;99.90;;;;;;5046125;28;20173;-78
2020/12/01 01:04:44;;;;;;;7.20;5.50;;;5.40;99.90;;;;;;5045768;28;20212;-78
2020/12/01 01:07:10;;;;;;;5.78;5.00;;;5.30;99.90;;;;;;5039508;28;20431;-78
2020/12/01 01:09:36;;;;;;;6.22;5.40;;;5.40;99.90;;;;;;5049728;28;20701;-77
2020/12/01 01:12:01;;;;;;;7.40;5.67;;;5.40;99.90;;;;;;5040448;28;20207;-77
2020/12/01 01:14:27;;;;;;;7.47;6.67;;;5.50;99.90;;;;;;5050218;28;20278;-77
2020/12/01 01:16:53;;;;;;;10.77;7.10;;;5.40;99.90;;;;;;5045239;28;20184;-77
2020/12/01 01:19:18;;;;;;;12.27;7.37;;;5.50;99.90;;;;;;5045332;28;20209;-78
2020/12/01 01:21:45;;;;;;;9.53;7.30;;;5.40;99.90;;;;;;5046839;28;20267;-78
2020/12/01 01:24:14;;;;;;;9.40;7.93;;;5.40;99.90;;;;;;5052911;28;20216;-79
2020/12/01 01:26:40;;;;;;;9.45;8.05;;;5.40;99.90;;;;;;5041624;28;20200;-77
2020/12/01 01:29:06;;;;;;;11.10;7.50;;;5.40;99.90;;;;;;5046872;28;20243;-78
2020/12/01 01:31:32;;;;;;;12.38;8.13;;;5.30;99.90;;;;;;5051433;28;20192;-78
2020/12/01 01:33:58;;;;;;;10.80;8.70;;;5.30;99.90;;;;;;5034673;28;20524;-78
2020/12/01 01:36:24;;;;;;;10.60;7.50;;;5.30;99.90;;;;;;5032681;28;20447;-78
2020/12/01 01:38:50;;;;;;;15.33;9.80;;;5.40;99.90;;;;;;5046185;28;20227;-78
2020/12/01 01:41:16;;;;;;;10.40;8.73;;;5.40;99.90;;;;;;5037337;28;20531;-78
2020/12/01 01:43:42;;;;;;;12.07;8.87;;;5.40;99.90;;;;;;5038214;28;20234;-77
2020/12/01 01:46:39;;;;;;;13.73;9.23;;;5.40;99.90;;;;;;5034595;28;20827;-77
2020/12/01 01:49:10;;;;;;;13.35;9.98;;;5.40;99.90;;;;;;5042690;28;20227;-78
2020/12/01 01:51:38;;;;;;;11.75;9.63;;;5.40;99.90;;;;;;5050824;28;20544;-78
2020/12/01 01:54:04;;;;;;;13.77;10.70;;;5.40;99.90;;;;;;5031924;28;20213;-77
2020/12/01 01:56:36;;;;;;;15.68;10.95;;;5.50;99.90;;;;;;5039789;28;20228;-78
2020/12/01 01:59:03;;;;;;;14.68;11.40;;;5.50;99.90;;;;;;5039764;28;20212;-77
2020/12/01 02:01:30;;;;;;;14.93;12.48;;;5.50;99.90;;;;;;5051507;28;20585;-77
2020/12/01 02:03:59;;;;;;;13.63;11.35;;;5.60;99.90;;;;;;5035040;28;20216;-78
2020/12/01 02:06:33;;;;;;;17.40;11.95;;;5.60;99.90;;;;;;5041524;28;20177;-78
2020/12/01 02:09:02;;;;;;;14.65;11.40;;;5.60;99.90;;;;;;5039969;28;20173;-77
2020/12/01 02:11:32;;;;;;;16.50;12.75;;;5.50;99.90;;;;;;5033368;28;20197;-77
2020/12/01 02:14:08;;;;;;;14.63;10.52;;;5.60;99.90;;;;;;5048490;28;20192;-77
2020/12/01 02:16:38;;;;;;;15.32;10.48;;;5.50;99.90;;;;;;5030839;28;20192;-77
2020/12/01 02:19:07;;;;;;;13.27;9.15;;;5.50;99.90;;;;;;5033240;28;20263;-78
2020/12/01 02:21:38;;;;;;;12.88;9.75;;;5.60;99.90;;;;;;5049221;28;20176;-78
2020/12/01 02:24:11;;;;;;;13.15;9.05;;;5.50;99.90;;;;;;5037252;28;20212;-78
2020/12/01 02:26:37;;;;;;;12.77;10.25;;;5.50;99.90;;;;;;5027275;28;20180;-78
2020/12/01 02:29:10;;;;;;;10.35;8.95;;;5.50;99.90;;;;;;5046855;28;20215;-79
2020/12/01 02:31:37;;;;;;;12.93;9.75;;;5.50;99.90;;;;;;5050162;28;20290;-78
2020/12/01 02:34:07;;;;;;;14.07;9.00;;;5.50;99.90;;;;;;5032559;28;20236;-77
2020/12/01 02:36:33;;;;;;;11.02;9.10;;;5.60;99.90;;;;;;5026943;28;20170;-77
2020/12/01 02:38:59;;;;;;;10.20;8.13;;;5.60;99.90;;;;;;5027028;28;20252;-78
2020/12/01 02:41:25;;;;;;;10.67;8.70;;;5.60;99.90;;;;;;5046311;28;20295;-77
2020/12/01 02:43:51;;;;;;;12.03;9.77;;;5.50;99.90;;;;;;5045182;28;20450;-77
2020/12/01 02:46:18;;;;;;;14.48;8.93;;;5.50;99.90;;;;;;5031612;28;20434;-77
2020/12/01 02:48:43;;;;;;;9.50;8.18;;;5.50;99.90;;;;;;5051792;28;20179;-77
2020/12/01 02:51:09;;;;;;;11.53;9.90;;;5.50;99.90;;;;;;5052406;28;20196;-78
2020/12/01 02:53:34;;;;;;;13.37;10.47;;;5.50;99.90;;;;;;5041964;28;20276;-78
2020/12/01 02:56:00;;;;;;;10.93;9.63;;;5.50;99.90;;;;;;5020553;28;20198;-78
2020/12/01 02:58:26;;;;;;;12.93;9.50;;;5.50;99.90;;;;;;5049640;28;20647;-80
2020/12/01 03:00:51;;;;;;;14.13;9.53;;;5.60;99.90;;;;;;5053202;28;20674;-80
2020/12/01 03:03:17;;;;;;;13.80;10.17;;;5.60;99.90;;;;;;5053682;28;20299;-80
2020/12/01 03:05:43;;;;;;;14.50;10.00;;;5.50;99.90;;;;;;5041581;28;20579;-80
2020/12/01 03:08:08;;;;;;;13.50;10.20;;;5.50;99.90;;;;;;5033019;28;20170;-80
2020/12/01 03:10:34;;;;;;;11.93;9.43;;;5.50;99.90;;;;;;5032975;28;20205;-79
2020/12/01 03:12:59;;;;;;;11.00;9.50;;;5.60;99.90;;;;;;5033347;28;20170;-80
2020/12/01 03:15:25;;;;;;;17.67;9.53;;;5.60;99.90;;;;;;5030796;28;20782;-78
2020/12/01 03:17:51;;;;;;;13.70;8.80;;;5.60;99.90;;;;;;5042100;28;20180;-78
2020/12/01 03:20:17;;;;;;;12.07;9.20;;;5.60;99.90;;;;;;5035156;28;20216;-78
2020/12/01 03:22:42;;;;;;;15.03;9.87;;;5.60;99.90;;;;;;5053041;28;20410;-80
2020/12/01 03:25:08;;;;;;;11.80;8.97;;;5.60;99.90;;;;;;5044768;28;20296;-80
2020/12/01 03:27:33;;;;;;;13.30;10.00;;;5.60;99.90;;;;;;5038582;28;20213;-78
2020/12/01 03:29:59;;;;;;;12.10;8.93;;;5.60;99.90;;;;;;5052893;28;20212;-80
2020/12/01 03:32:25;;;;;;;12.50;9.50;;;5.50;99.90;;;;;;5051215;28;20196;-80
2020/12/01 03:34:52;;;;;;;12.20;9.17;;;5.60;99.90;;;;;;5043652;28;20216;-80
2020/12/01 03:37:19;;;;;;;12.45;10.20;;;5.60;99.90;;;;;;5047325;28;20697;-80
2020/12/01 03:39:44;;;;;;;12.48;9.80;;;5.60;99.90;;;;;;5042808;28;20697;-78
2020/12/01 03:42:10;;;;;;;14.70;9.77;;;5.60;99.90;;;;;;5044722;28;20241;-79
2020/12/01 03:44:36;;;;;;;11.50;10.30;;;5.60;99.90;;;;;;5033984;28;20281;-79
2020/12/01 03:47:02;;;;;;;12.80;10.27;;;5.60;99.90;;;;;;5034395;28;20249;-78
2020/12/01 03:49:27;;;;;;;12.15;9.52;;;5.60;99.90;;;;;;5031894;28;20323;-79
2020/12/01 03:51:53;;;;;;;13.03;9.70;;;5.60;99.90;;;;;;5031921;28;20556;-79
2020/12/01 03:54:19;;;;;;;13.23;9.90;;;5.60;99.90;;;;;;5038168;28;20691;-78
2020/12/01 03:56:44;;;;;;;9.77;8.73;;;5.60;99.90;;;;;;5034308;28;20291;-78
2020/12/01 03:59:10;;;;;;;11.57;9.13;;;5.60;99.90;;;;;;5031595;28;20216;-78
2020/12/01 04:01:35;;;;;;;10.10;8.67;;;5.60;99.90;;;;;;5050187;28;20173;-80
2020/12/01 04:04:01;;;;;;;9.63;7.17;;;5.70;99.90;;;;;;5021163;28;20217;-80
2020/12/01 04:06:27;;;;;;;9.43;7.07;;;5.70;99.90;;;;;;5018507;28;20173;-80
2020/12/01 04:08:52;;;;;;;9.77;7.40;;;5.80;99.90;;;;;;5046141;28;20168;-82
2020/12/01 04:11:18;;;;;;;10.67;6.03;;;5.80;99.90;;;;;;5044552;28;20200;-81
2020/12/01 04:16:19;;;;;;;8.77;5.93;;;5.90;99.90;;;;;;5770460;23;20263;-80
2020/12/01 04:18:45;;;;;;;7.10;6.30;;;6.00;99.90;;;;;;4972703;28;20179;-81
2020/12/01 04:21:11;;;;;;;8.00;6.00;;;5.90;99.90;;;;;;4965035;28;20175;-80
2020/12/01 04:23:37;;;;;;;10.10;6.43;;;6.00;99.90;;;;;;4958302;28;20203;-81
2020/12/01 04:26:02;;;;;;;11.90;7.30;;;6.00;99.90;;;;;;4936679;29;20215;-81
2020/12/01 04:28:28;;;;;;;11.90;8.17;;;5.80;99.90;;;;;;4935928;29;20644;-82
2020/12/01 04:30:54;;;;;;;9.77;6.90;;;5.80;99.90;;;;;;4946080;28;20215;-79
2020/12/01 04:33:19;;;;;;;11.57;8.10;;;5.80;99.90;;;;;;4938395;29;20263;-81
2020/12/01 04:35:45;;;;;;;11.73;7.87;;;5.70;99.90;;;;;;4954484;28;20680;-82
2020/12/01 04:38:11;;;;;;;12.87;7.90;;;5.80;99.90;;;;;;4954938;29;20272;-81
2020/12/01 04:40:39;;;;;;;11.40;7.90;;;5.70;99.90;;;;;;4945578;28;20223;-81
2020/12/01 04:43:30;;;;;;;9.48;7.90;;;5.70;99.90;;;;;;4952464;28;20175;-78
2020/12/01 04:45:56;;;;;;;9.20;7.90;;;5.60;99.90;;;;;;4935424;28;20563;-79
2020/12/01 04:48:24;;;;;;;11.35;8.82;;;5.60;99.90;;;;;;4923617;29;20179;-79
2020/12/01 04:50:57;;;;;;;11.48;8.40;;;5.70;99.90;;;;;;4934627;28;20239;-79
2020/12/01 04:53:31;;;;;;;11.68;9.07;;;5.70;99.90;;;;;;4932890;29;21611;-80
2020/12/01 04:56:09;;;;;;;12.55;9.77;;;5.70;99.90;;;;;;4937238;29;20559;-80
2020/12/01 04:58:54;;;;;;;12.38;8.98;;;5.80;99.90;;;;;;4948911;29;20188;-80
2020/12/01 05:01:33;;;;;;;16.63;9.50;;;5.80;99.90;;;;;;4941498;29;20236;-79
2020/12/01 05:04:28;;;;;;;16.23;9.68;;;5.80;99.90;;;;;;4946516;28;20617;-78
2020/12/01 05:07:14;;;;;;;10.75;8.30;;;5.80;99.90;;;;;;4933096;29;20176;-79
2020/12/01 05:09:45;;;;;;;12.05;10.88;;;5.80;99.90;;;;;;4933394;28;20574;-79
2020/12/01 05:12:15;;;;;;;15.23;10.93;;;5.90;99.90;;;;;;4947876;29;20200;-79
2020/12/01 05:14:44;;;;;;;12.40;10.10;;;6.00;99.90;;;;;;4933339;28;20263;-78
2020/12/01 05:17:31;;;;;;;14.88;10.93;;;5.90;99.90;;;;;;4936927;28;20595;-77
2020/12/01 05:19:57;;;;;;;15.90;11.55;;;5.80;99.90;;;;;;4947237;28;20248;-78
2020/12/01 05:22:23;;;;;;;15.50;9.67;;;5.90;99.90;;;;;;4944792;28;20208;-78
2020/12/01 05:24:50;;;;;;;17.00;10.50;;;6.00;99.90;;;;;;4953655;28;20227;-78
2020/12/01 05:27:34;;;;;;;16.45;10.35;;;6.10;99.90;;;;;;4938876;28;20246;-78
2020/12/01 05:30:20;;;;;;;14.30;9.25;;;6.20;99.90;;;;;;4927043;29;20211;-78
2020/12/01 05:32:59;;;;;;;19.88;10.35;;;6.10;99.90;;;;;;4935885;29;20207;-78
2020/12/01 05:35:31;;;;;;;16.83;9.77;;;6.10;99.90;;;;;;4935192;29;20205;-78
2020/12/01 05:38:26;;;;;;;24.35;9.73;;;6.10;99.90;;;;;;4935994;29;20220;-78
2020/12/01 05:40:56;;;;;;;19.45;10.00;;;5.90;99.90;;;;;;4938374;29;20682;-78
2020/12/01 05:43:34;;;;;;;18.50;10.15;;;5.90;99.90;;;;;;4938363;28;20525;-78
2020/12/01 05:46:37;;;;;;;16.25;9.20;;;5.80;99.90;;;;;;4960099;28;20220;-78
2020/12/01 05:49:24;;;;;;;18.23;9.38;;;6.00;99.90;;;;;;4954381;28;20211;-78
2020/12/01 05:51:59;;;;;;;19.48;10.00;;;6.00;99.90;;;;;;4953107;28;20200;-78
2020/12/01 05:54:37;;;;;;;13.90;9.25;;;6.10;99.90;;;;;;4957400;28;20299;-78
2020/12/01 05:57:15;;;;;;;15.75;9.32;;;6.10;99.90;;;;;;4954409;28;20638;-77
2020/12/01 06:00:00;;;;;;;18.05;8.55;;;6.10;99.90;;;;;;4961688;28;20242;-78
2020/12/01 06:03:21;;;;;;;24.08;8.45;;;6.20;99.90;;;;;;4954810;28;20179;-77
2020/12/01 06:05:57;;;;;;;17.92;8.15;;;6.20;99.90;;;;;;4939094;28;20215;-77
2020/12/01 06:08:48;;;;;;;17.58;7.70;;;6.10;99.90;;;;;;4943525;28;20179;-78
2020/12/01 06:11:43;;;;;;;13.05;8.05;;;6.10;99.90;;;;;;4968645;28;20207;-78
2020/12/01 06:14:17;;;;;;;14.05;7.40;;;6.10;99.90;;;;;;4942023;28;20298;-77
2020/12/01 06:16:50;;;;;;;15.80;8.40;;;6.10;99.90;;;;;;4947269;28;20180;-78
2020/12/01 06:19:41;;;;;;;22.00;9.10;;;6.10;99.90;;;;;;4959901;28;20211;-78
2020/12/01 06:22:19;;;;;;;20.27;8.68;;;6.20;99.90;;;;;;4972327;28;20585;-78
2020/12/01 06:25:07;;;;;;;15.68;8.88;;;6.10;99.90;;;;;;4968495;28;20302;-78
2020/12/01 06:28:06;;;;;;;15.35;8.30;;;6.10;99.90;;;;;;4938719;28;20188;-77
2020/12/01 06:30:47;;;;;;;15.15;8.90;;;6.10;99.90;;;;;;4961823;28;20222;-77
2020/12/01 06:33:54;;;;;;;16.98;9.15;;;6.00;99.90;;;;;;4968229;28;20616;-77
2020/12/01 06:36:22;;;;;;;17.00;8.95;;;6.10;99.90;;;;;;4934186;28;20204;-78
2020/12/01 06:39:09;;;;;;;20.02;10.15;;;6.10;99.90;;;;;;4957246;28;20237;-78
2020/12/01 06:41:40;;;;;;;15.20;9.98;;;6.20;99.90;;;;;;4968232;28;20172;-77
2020/12/01 06:44:18;;;;;;;14.55;8.95;;;6.20;99.90;;;;;;4966687;28;20223;-78
2020/12/01 06:46:46;;;;;;;13.32;9.88;;;6.20;99.90;;;;;;4938875;28;20188;-78
2020/12/01 06:49:17;;;;;;;19.10;8.80;;;6.10;99.90;;;;;;4949953;28;20212;-78
2020/12/01 06:51:53;;;;;;;22.77;9.95;;;6.20;99.90;;;;;;4959108;28;20316;-77
2020/12/01 06:54:19;;;;;;;16.40;8.77;;;6.30;99.90;;;;;;4952948;28;20216;-78
2020/12/01 06:56:56;;;;;;;22.05;9.20;;;6.20;99.90;;;;;;4936859;28;20176;-78
2020/12/01 06:59:22;;;;;;;20.25;9.23;;;6.30;99.90;;;;;;4952882;28;20207;-77
2020/12/01 07:01:48;;;;;;;21.37;10.00;;;6.20;99.90;;;;;;4952849;28;20224;-78
2020/12/01 07:04:14;;;;;;;18.00;9.15;;;6.20;99.90;;;;;;4967201;28;20315;-78
2020/12/01 07:06:53;;;;;;;16.00;9.77;;;6.20;99.90;;;;;;4943054;28;20283;-78
2020/12/01 07:09:44;;;;;;;19.80;10.63;;;6.30;99.90;;;;;;4970204;28;20274;-78
2020/12/01 07:12:13;;;;;;;24.92;11.43;;;6.30;99.90;;;;;;4970864;28;20210;-78
2020/12/01 07:14:43;;;;;;;16.45;11.82;;;6.20;99.90;;;;;;4960380;28;20308;-76
2020/12/01 07:17:21;;;;;;;17.52;10.63;;;6.20;99.90;;;;;;4937452;28;20251;-78
2020/12/01 07:20:12;;;;;;;21.67;11.85;;;6.30;99.90;;;;;;4937621;28;20207;-78
2020/12/01 07:23:00;;;;;;;23.00;12.07;;;6.20;99.90;;;;;;4954426;28;20183;-78
2020/12/01 07:25:57;;;;;;;21.70;12.77;;;6.30;99.90;;;;;;4955647;28;20306;-77
2020/12/01 07:28:35;;;;;;;26.10;11.73;;;6.30;99.90;;;;;;4952412;28;20262;-77
2020/12/01 07:31:17;;;;;;;20.13;11.18;;;6.20;99.90;;;;;;4958756;28;20211;-76
2020/12/01 07:33:53;;;;;;;21.70;11.93;;;6.20;99.90;;;;;;4962441;28;20195;-78
2020/12/01 07:36:33;;;;;;;22.45;12.48;;;6.30;99.90;;;;;;4955045;28;20683;-78
2020/12/01 07:39:20;;;;;;;20.85;11.60;;;6.30;99.90;;;;;;4966824;28;20620;-78
2020/12/01 07:41:59;;;;;;;20.48;12.27;;;6.30;99.90;;;;;;4965429;28;20209;-79
2020/12/01 07:44:27;;;;;;;19.88;12.65;;;6.30;99.90;;;;;;4955345;28;20735;-78
2020/12/01 07:47:21;;;;;;;21.80;12.50;;;6.30;99.90;;;;;;4948081;29;20195;-78
2020/12/01 07:49:58;;;;;;;31.98;13.52;;;6.30;99.90;;;;;;4941433;28;20211;-78
2020/12/01 07:52:39;;;;;;;19.90;12.45;;;6.20;99.90;;;;;;4972563;28;20293;-79
2020/12/01 07:55:38;;;;;;;24.50;14.05;;;6.20;99.90;;;;;;4955457;28;20224;-80
2020/12/01 07:58:18;;;;;;;25.90;12.57;;;6.30;99.90;;;;;;4943137;28;20185;-79
2020/12/01 08:01:02;;;;;;;23.48;13.73;;;6.20;99.90;;;;;;4953383;28;20695;-78
2020/12/01 08:03:36;;;;;;;24.65;14.48;;;6.20;99.90;;;;;;4953675;28;20258;-78
2020/12/01 08:06:07;;;;;;;19.73;13.35;;;6.30;99.90;;;;;;4956720;28;20210;-78
2020/12/01 08:08:36;;;;;;;21.33;12.45;;;6.20;99.90;;;;;;4962403;28;20519;-78
2020/12/01 08:11:05;;;;;;;20.10;13.52;;;6.20;99.90;;;;;;4958294;28;20615;-78
2020/12/01 08:13:34;;;;;;;19.45;12.57;;;6.30;99.90;;;;;;4970582;28;20222;-78
2020/12/01 08:16:02;;;;;;;26.63;15.00;;;6.30;99.90;;;;;;4945342;28;20286;-78
2020/12/01 08:18:30;;;;;;;32.88;14.10;;;6.30;99.90;;;;;;4951548;28;20182;-78
2020/12/01 08:20:57;;;;;;;25.95;13.82;;;6.30;99.90;;;;;;4962099;28;20242;-78
2020/12/01 08:23:28;;;;;;;18.92;14.18;;;6.20;99.90;;;;;;4953662;28;20168;-78
2020/12/01 08:26:22;;;;;;;23.52;13.85;;;6.20;99.90;;;;;;4956592;28;20303;-78
2020/12/01 08:29:17;;;;;;;18.50;13.90;;;6.20;99.90;;;;;;4947688;28;20174;-78
2020/12/01 08:31:49;;;;;;;21.25;13.32;;;6.20;99.90;;;;;;4956130;28;20215;-79
2020/12/01 08:34:50;;;;;;;17.80;11.77;;;6.30;99.90;;;;;;4952029;28;20220;-79
2020/12/01 08:37:28;;;;;;;17.73;11.38;;;6.40;99.90;;;;;;4944871;28;20563;-79
2020/12/01 08:39:54;;;;;;;24.08;13.57;;;6.40;99.90;;;;;;4964945;28;20238;-79
2020/12/01 08:42:47;;;;;;;25.02;13.23;;;6.30;99.90;;;;;;4956744;28;20169;-78
2020/12/01 08:45:46;;;;;;;19.38;11.48;;;6.40;99.90;;;;;;4952736;28;20682;-79
2020/12/01 08:48:21;;;;;;;23.70;12.93;;;6.30;99.90;;;;;;4951927;28;20231;-78
2020/12/01 08:50:55;;;;;;;18.10;12.07;;;6.40;99.90;;;;;;4956634;28;20206;-78
2020/12/01 08:53:22;;;;;;;27.20;12.98;;;6.40;99.90;;;;;;4966318;28;20179;-78
2020/12/01 08:55:50;;;;;;;20.17;11.95;;;6.40;99.90;;;;;;4946762;28;20212;-79
2020/12/01 08:58:28;;;;;;;14.18;10.82;;;6.40;99.90;;;;;;4972956;28;20175;-78
2020/12/01 09:01:11;;;;;;;15.93;12.18;;;6.40;99.90;;;;;;4962650;28;20212;-78
2020/12/01 09:03:39;;;;;;;17.27;12.40;;;6.50;99.90;;;;;;4954824;28;20200;-78
2020/12/01 09:06:20;;;;;;;20.42;11.40;;;6.40;99.90;;;;;;4948600;28;20216;-79
2020/12/01 09:08:57;;;;;;;20.10;11.05;;;6.40;99.90;;;;;;4960697;28;20195;-79
2020/12/01 09:14:23;;;;;;;23.42;11.73;;;6.50;99.90;;;;;;4970053;28;20214;-78
2020/12/01 09:17:04;;;;;;;16.50;12.27;;;6.50;99.90;;;;;;4952525;28;20179;-78
2020/12/01 09:22:31;;;;;;;24.13;12.93;;;6.60;99.90;;;;;;4974280;28;20666;-78
2020/12/01 09:25:16;;;;;;;20.95;10.98;;;6.50;99.90;;;;;;4963281;28;20212;-79
2020/12/01 09:27:43;;;;;;;19.80;11.32;;;6.60;99.90;;;;;;4963116;28;20267;-78
2020/12/01 09:30:29;;;;;;;17.65;12.30;;;6.70;99.90;;;;;;4955745;28;20208;-79
2020/12/01 09:32:55;;;;;;;24.58;12.95;;;6.70;99.90;;;;;;4942209;28;20195;-79
2020/12/01 09:35:21;;;;;;;27.90;14.43;;;6.80;99.90;;;;;;4960080;28;20207;-80
2020/12/01 09:37:47;;;;;;;21.90;11.97;;;6.80;99.90;;;;;;4951590;28;20670;-79
2020/12/01 09:40:13;;;;;;;20.67;13.23;;;6.80;99.90;;;;;;4970201;28;20207;-80
2020/12/01 09:42:40;;;;;;;22.63;14.98;;;6.80;99.90;;;;;;4972478;28;20283;-78
2020/12/01 09:47:39;;;;;;;18.27;13.63;;;6.80;99.90;;;;;;4941978;28;20184;-78
2020/12/01 09:50:08;;;;;;;19.40;14.57;;;6.80;99.90;;;;;;4961690;28;20210;-78
2020/12/01 10:08:58;;;;;;;17.05;11.52;;;7.10;99.90;;;;;;4955653;28;20231;-78
2020/12/01 10:11:58;;;;;;;21.00;12.43;;;7.10;99.90;;;;;;4971550;28;20219;-78
2020/12/01 10:36:23;;;;;;;12.05;8.85;;;7.50;99.90;;;;;;4964961;28;20591;-78
2020/12/01 10:38:49;;;;;;;12.85;8.73;;;7.50;99.90;;;;;;4960290;28;20710;-78
2020/12/01 10:41:14;;;;;;;12.38;8.75;;;7.50;99.90;;;;;;4955149;28;20186;-78
2020/12/01 10:43:40;;;;;;;13.00;8.80;;;7.50;99.90;;;;;;4955855;28;20192;-78
2020/12/01 10:46:09;;;;;;;12.50;9.23;;;7.50;99.90;;;;;;4956512;28;20208;-79
2020/12/01 10:48:34;;;;;;;10.73;8.02;;;7.40;99.90;;;;;;4963713;28;20478;-78
2020/12/01 10:51:00;;;;;;;11.03;7.80;;;7.40;99.90;;;;;;4960022;28;20244;-78
2020/12/01 10:53:25;;;;;;;14.93;7.70;;;7.50;99.90;;;;;;4971143;28;20555;-78
2020/12/01 10:55:51;;;;;;;11.57;8.53;;;7.40;99.90;;;;;;4967527;28;20219;-78
2020/12/01 10:58:17;;;;;;;11.43;8.53;;;7.40;99.90;;;;;;4959451;28;20180;-78
2020/12/01 11:00:42;;;;;;;11.67;9.13;;;7.40;99.90;;;;;;4964971;28;20618;-79
2020/12/01 11:03:08;;;;;;;11.37;8.90;;;7.40;99.90;;;;;;4973703;28;20208;-79
2020/12/01 11:05:34;;;;;;;10.97;8.10;;;7.40;99.90;;;;;;4955650;28;20242;-79
2020/12/01 11:08:00;;;;;;;11.77;8.20;;;7.60;99.90;;;;;;4958758;28;20206;-79
2020/12/01 11:10:27;;;;;;;10.55;8.43;;;7.50;99.90;;;;;;4954432;28;20622;-79
2020/12/01 11:12:53;;;;;;;13.43;7.75;;;7.60;99.90;;;;;;4953067;28;20510;-80
2020/12/01 11:15:19;;;;;;;9.90;6.47;;;7.60;99.90;;;;;;4940660;28;20251;-79
2020/12/01 11:17:44;;;;;;;7.63;4.47;;;7.70;99.90;;;;;;4953259;28;20223;-80
2020/12/01 11:20:12;;;;;;;8.50;5.40;;;7.70;99.90;;;;;;4965192;28;20916;-81
2020/12/01 11:22:38;;;;;;;6.07;5.10;;;7.70;99.90;;;;;;4955655;29;20267;-80
2020/12/01 11:25:05;;;;;;;6.43;5.30;;;7.70;99.90;;;;;;4952997;28;20227;-80
2020/12/01 11:27:31;;;;;;;6.50;4.68;;;7.70;99.90;;;;;;4948894;29;20232;-79
2020/12/01 11:29:56;;;;;;;5.70;4.00;;;7.70;99.90;;;;;;4935140;29;20296;-80
2020/12/01 11:32:23;;;;;;;8.50;5.50;;;7.70;99.90;;;;;;4919104;29;20208;-80
2020/12/01 11:34:48;;;;;;;5.40;4.53;;;7.70;99.90;;;;;;4952175;28;20467;-80
2020/12/01 11:37:14;;;;;;;7.47;5.27;;;7.70;99.90;;;;;;4951483;28;20229;-80
2020/12/01 11:39:40;;;;;;;10.03;6.03;;;7.60;99.90;;;;;;4972242;28;20571;-80
2020/12/01 11:42:06;;;;;;;8.50;5.87;;;7.60;99.90;;;;;;4959689;28;20428;-79
2020/12/01 11:44:32;;;;;;;10.30;5.70;;;7.70;99.90;;;;;;4962125;28;20216;-79
2020/12/01 11:46:57;;;;;;;10.30;6.50;;;7.70;99.90;;;;;;4943045;28;20542;-79
2020/12/01 11:49:24;;;;;;;8.20;5.83;;;7.70;99.90;;;;;;4964886;28;20582;-81
2020/12/01 11:51:50;;;;;;;9.18;5.60;;;7.70;99.90;;;;;;4959668;28;20771;-81
2020/12/01 11:54:16;;;;;;;9.67;5.37;;;7.60;99.90;;;;;;4949904;28;20359;-81
2020/12/01 11:56:42;;;;;;;6.85;5.35;;;7.60;99.90;;;;;;4951638;28;20180;-81
2020/12/01 11:59:08;;;;;;;7.40;5.40;;;7.60;99.90;;;;;;4969862;28;20705;-81
2020/12/01 12:01:34;;;;;;;6.53;4.93;;;7.60;99.90;;;;;;4956792;28;20215;-81
2020/12/01 12:04:00;;;;;;;5.20;4.18;;;7.60;99.90;;;;;;4954014;28;20191;-80
2020/12/01 12:06:26;;;;;;;6.70;4.60;;;7.60;99.90;;;;;;4949382;28;20175;-79
2020/12/01 12:08:51;;;;;;;5.30;4.50;;;7.70;99.90;;;;;;4952824;28;20642;-79
2020/12/01 12:11:17;;;;;;;9.10;5.00;;;7.70;99.90;;;;;;4958128;28;20228;-79
2020/12/01 12:13:46;;;;;;;6.22;4.65;;;7.60;99.90;;;;;;4968706;28;20188;-79
2020/12/01 12:16:14;;;;;;;8.90;4.90;;;7.50;99.90;;;;;;4947386;28;20670;-79
2020/12/01 12:18:40;;;;;;;5.15;4.03;;;7.50;99.90;;;;;;4963009;28;20216;-80
2020/12/01 12:21:05;;;;;;;5.30;4.03;;;7.40;99.90;;;;;;4958312;28;20207;-81
2020/12/01 12:23:31;;;;;;;5.40;4.30;;;7.40;99.90;;;;;;4968233;28;20274;-81
2020/12/01 12:25:57;;;;;;;8.03;3.47;;;7.30;99.90;;;;;;4947793;28;20208;-82
2020/12/01 12:28:22;;;;;;;6.97;3.70;;;7.30;99.90;;;;;;4959867;28;20172;-82
2020/12/01 12:30:48;;;;;;;4.30;2.73;;;7.30;99.90;;;;;;4960317;28;21010;-81
2020/12/01 12:33:14;;;;;;;3.83;2.85;;;7.30;99.90;;;;;;4971635;28;20226;-81
2020/12/01 12:35:40;;;;;;;5.20;2.90;;;7.30;99.90;;;;;;4950634;28;20231;-80
2020/12/01 12:38:06;;;;;;;3.90;2.97;;;7.30;99.90;;;;;;4937296;29;20610;-79
2020/12/01 12:40:31;;;;;;;4.83;2.60;;;7.30;99.90;;;;;;4951069;28;20299;-79
2020/12/01 12:42:57;;;;;;;3.87;2.60;;;7.20;99.90;;;;;;4961235;28;20190;-79
2020/12/01 12:45:23;;;;;;;4.27;3.30;;;7.20;99.90;;;;;;4954739;28;20211;-80
2020/12/01 12:47:48;;;;;;;4.97;3.80;;;7.30;99.90;;;;;;4941149;28;20218;-81
2020/12/01 12:50:16;;;;;;;8.20;2.97;;;7.30;99.90;;;;;;4962810;28;20215;-81
2020/12/01 12:52:42;;;;;;;5.47;3.60;;;7.30;99.90;;;;;;4977650;28;20204;-81
2020/12/01 12:55:09;;;;;;;5.37;3.13;;;7.40;99.90;;;;;;4970243;28;20212;-79
2020/12/01 12:57:34;;;;;;;5.55;3.28;;;7.30;99.90;;;;;;4958836;28;20436;-80
2020/12/01 13:00:00;;;;;;;6.13;3.43;;;7.40;99.90;;;;;;4957813;28;20224;-80
2020/12/01 13:02:26;;;;;;;7.53;2.93;;;7.40;99.90;;;;;;4966534;28;20176;-80
2020/12/01 13:04:51;;;;;;;7.07;3.20;;;7.50;99.90;;;;;;4971230;28;20207;-80
2020/12/01 13:07:17;;;;;;;6.50;3.03;;;7.50;99.90;;;;;;4960439;28;20226;-80
2020/12/01 13:09:43;;;;;;;5.80;3.20;;;7.40;99.90;;;;;;4961219;28;20219;-80
2020/12/01 13:12:09;;;;;;;4.30;2.80;;;7.40;99.90;;;;;;4974489;28;20203;-80
2020/12/01 13:14:35;;;;;;;5.67;2.53;;;7.30;99.90;;;;;;4975002;28;20828;-81
2020/12/01 13:17:00;;;;;;;6.70;2.60;;;7.40;99.90;;;;;;4973529;28;20258;-81
2020/12/01 13:19:26;;;;;;;5.90;3.20;;;7.40;99.90;;;;;;4975993;28;20310;-81
2020/12/01 13:21:52;;;;;;;10.90;3.10;;;7.30;99.90;;;;;;4975467;28;20199;-81
2020/12/01 13:24:17;;;;;;;15.03;4.53;;;7.30;99.90;;;;;;4968583;28;20805;-81
2020/12/01 13:26:43;;;;;;;16.00;3.80;;;7.30;99.90;;;;;;4966611;28;20254;-81
2020/12/01 13:29:09;;;;;;;8.10;2.73;;;7.30;99.90;;;;;;4959100;28;20291;-81
2020/12/01 13:31:35;;;;;;;7.53;3.50;;;7.30;99.90;;;;;;4957779;29;20188;-81
2020/12/01 13:34:01;;;;;;;10.60;3.00;;;7.40;99.90;;;;;;4957580;28;22933;-81
2020/12/01 13:36:28;;;;;;;3.95;2.50;;;7.30;99.90;;;;;;4952897;29;20259;-81
2020/12/01 13:38:54;;;;;;;9.45;3.13;;;7.30;99.90;;;;;;4937052;29;20168;-81
2020/12/01 13:41:19;;;;;;;6.90;2.50;;;7.30;99.90;;;;;;4966742;28;20550;-80
2020/12/01 13:43:46;;;;;;;8.93;2.70;;;7.30;99.90;;;;;;4971303;28;20631;-80
2020/12/01 13:46:15;;;;;;;6.45;3.58;;;7.30;99.90;;;;;;4948178;28;20185;-81
2020/12/01 13:48:41;;;;;;;6.15;3.28;;;7.40;99.90;;;;;;4951376;28;20181;-80
2020/12/01 13:51:07;;;;;;;5.43;2.60;;;7.40;99.90;;;;;;4965007;28;20240;-80
2020/12/01 13:53:33;;;;;;;9.53;3.00;;;7.40;99.90;;;;;;4964219;28;20925;-79
2020/12/01 13:55:59;;;;;;;14.40;3.73;;;7.40;99.90;;;;;;4950282;28;20460;-80